sensor_id;sensor_type;location;lat;lon;timestamp;P1;durP1;ratioP1;P2;durP2;ratioP2
2029;SDS011;1020;48.854;8.830;2023-02-26T00:00:05;1.90;;;1.53;;
2029;SDS011;1020;48.854;8.830;2023-02-26T00:02:36;1.53;;;1.43;;
2029;SDS011;1020;48.854;8.830;2023-02-26T00:05:03;2.60;;;1.70;;
2029;SDS011;1020;48.854;8.830;2023-02-26T00:07:32;3.13;;;1.63;;
2029;SDS011;1020;48.854;8.830;2023-02-26T00:09:59;3.30;;;1.60;;
2029;SDS011;1020;48.854;8.830;2023-02-26T00:12:26;3.40;;;1.90;;
2029;SDS011;1020;48.854;8.830;2023-02-26T00:14:54;1.63;;;1.53;;
2029;SDS011;1020;48.854;8.830;2023-02-26T00:20:13;2.10;;;1.97;;
2029;SDS011;1020;48.854;8.830;2023-02-26T00:22:43;2.67;;;2.00;;
2029;SDS011;1020;48.854;8.830;2023-02-26T00:25:10;2.07;;;1.67;;
2029;SDS011;1020;48.854;8.830;2023-02-26T00:27:37;2.00;;;1.53;;
2029;SDS011;1020;48.854;8.830;2023-02-26T00:30:06;1.93;;;1.73;;
2029;SDS011;1020;48.854;8.830;2023-02-26T00:32:34;1.53;;;1.43;;
2029;SDS011;1020;48.854;8.830;2023-02-26T00:35:03;1.80;;;1.70;;
2029;SDS011;1020;48.854;8.830;2023-02-26T00:37:35;2.17;;;1.93;;
2029;SDS011;1020;48.854;8.830;2023-02-26T00:40:14;3.27;;;1.70;;
2029;SDS011;1020;48.854;8.830;2023-02-26T00:42:48;1.77;;;1.67;;
2029;SDS011;1020;48.854;8.830;2023-02-26T00:45:15;2.23;;;2.00;;
2029;SDS011;1020;48.854;8.830;2023-02-26T00:47:44;2.10;;;1.87;;
2029;SDS011;1020;48.854;8.830;2023-02-26T00:50:16;2.50;;;2.30;;
2029;SDS011;1020;48.854;8.830;2023-02-26T00:55:33;2.60;;;1.90;;
2029;SDS011;1020;48.854;8.830;2023-02-26T00:58:00;2.57;;;1.70;;
2029;SDS011;1020;48.854;8.830;2023-02-26T01:00:27;1.57;;;1.47;;
2029;SDS011;1020;48.854;8.830;2023-02-26T01:02:54;3.03;;;1.77;;
2029;SDS011;1020;48.854;8.830;2023-02-26T01:05:21;1.73;;;1.63;;
2029;SDS011;1020;48.854;8.830;2023-02-26T01:07:50;1.90;;;1.60;;
2029;SDS011;1020;48.854;8.830;2023-02-26T01:10:25;3.83;;;1.80;;
2029;SDS011;1020;48.854;8.830;2023-02-26T01:12:53;2.10;;;1.90;;
2029;SDS011;1020;48.854;8.830;2023-02-26T01:15:21;2.27;;;1.50;;
2029;SDS011;1020;48.854;8.830;2023-02-26T01:17:49;2.27;;;2.07;;
2029;SDS011;1020;48.854;8.830;2023-02-26T01:20:20;1.50;;;1.40;;
2029;SDS011;1020;48.854;8.830;2023-02-26T01:22:51;1.70;;;1.60;;
2029;SDS011;1020;48.854;8.830;2023-02-26T01:25:21;2.03;;;1.93;;
2029;SDS011;1020;48.854;8.830;2023-02-26T01:27:52;2.20;;;2.10;;
2029;SDS011;1020;48.854;8.830;2023-02-26T01:30:21;2.23;;;1.80;;
2029;SDS011;1020;48.854;8.830;2023-02-26T01:32:50;2.23;;;1.97;;
2029;SDS011;1020;48.854;8.830;2023-02-26T01:35:28;2.37;;;2.17;;
2029;SDS011;1020;48.854;8.830;2023-02-26T01:38:02;2.10;;;1.67;;
2029;SDS011;1020;48.854;8.830;2023-02-26T01:41:00;2.23;;;2.13;;
2029;SDS011;1020;48.854;8.830;2023-02-26T01:43:37;2.60;;;1.70;;
2029;SDS011;1020;48.854;8.830;2023-02-26T01:46:10;1.70;;;1.60;;
2029;SDS011;1020;48.854;8.830;2023-02-26T01:48:47;1.80;;;1.70;;
2029;SDS011;1020;48.854;8.830;2023-02-26T01:51:15;2.37;;;2.10;;
2029;SDS011;1020;48.854;8.830;2023-02-26T01:53:42;2.50;;;1.90;;
2029;SDS011;1020;48.854;8.830;2023-02-26T01:56:10;6.23;;;3.80;;
2029;SDS011;1020;48.854;8.830;2023-02-26T01:58:42;2.30;;;1.97;;
2029;SDS011;1020;48.854;8.830;2023-02-26T02:01:11;2.10;;;2.00;;
2029;SDS011;1020;48.854;8.830;2023-02-26T02:03:39;2.93;;;2.07;;
2029;SDS011;1020;48.854;8.830;2023-02-26T02:06:08;2.50;;;2.10;;
2029;SDS011;1020;48.854;8.830;2023-02-26T02:08:40;2.00;;;1.80;;
2029;SDS011;1020;48.854;8.830;2023-02-26T02:11:07;3.73;;;1.83;;
2029;SDS011;1020;48.854;8.830;2023-02-26T02:13:39;2.40;;;1.90;;
2029;SDS011;1020;48.854;8.830;2023-02-26T02:16:15;3.50;;;2.30;;
2029;SDS011;1020;48.854;8.830;2023-02-26T02:18:48;3.60;;;2.03;;
2029;SDS011;1020;48.854;8.830;2023-02-26T02:21:27;4.50;;;2.30;;
2029;SDS011;1020;48.854;8.830;2023-02-26T02:24:13;2.63;;;2.43;;
2029;SDS011;1020;48.854;8.830;2023-02-26T02:32:37;2.87;;;2.53;;
2029;SDS011;1020;48.854;8.830;2023-02-26T02:35:08;6.10;;;3.73;;
2029;SDS011;1020;48.854;8.830;2023-02-26T02:37:40;3.00;;;2.70;;
2029;SDS011;1020;48.854;8.830;2023-02-26T02:40:12;4.67;;;2.40;;
2029;SDS011;1020;48.854;8.830;2023-02-26T02:42:43;2.40;;;2.00;;
2029;SDS011;1020;48.854;8.830;2023-02-26T02:45:14;3.10;;;2.07;;
2029;SDS011;1020;48.854;8.830;2023-02-26T02:47:47;2.20;;;1.93;;
2029;SDS011;1020;48.854;8.830;2023-02-26T02:50:19;4.20;;;2.07;;
2029;SDS011;1020;48.854;8.830;2023-02-26T02:52:49;2.17;;;1.93;;
2029;SDS011;1020;48.854;8.830;2023-02-26T02:55:20;2.37;;;2.07;;
2029;SDS011;1020;48.854;8.830;2023-02-26T02:57:51;2.70;;;2.27;;
2029;SDS011;1020;48.854;8.830;2023-02-26T03:00:23;3.37;;;2.50;;
2029;SDS011;1020;48.854;8.830;2023-02-26T03:02:56;2.03;;;1.90;;
2029;SDS011;1020;48.854;8.830;2023-02-26T03:05:28;2.83;;;2.60;;
2029;SDS011;1020;48.854;8.830;2023-02-26T03:07:55;2.50;;;2.30;;
2029;SDS011;1020;48.854;8.830;2023-02-26T03:10:26;2.20;;;2.00;;
2029;SDS011;1020;48.854;8.830;2023-02-26T03:12:53;4.10;;;1.93;;
2029;SDS011;1020;48.854;8.830;2023-02-26T03:15:34;2.73;;;2.53;;
2029;SDS011;1020;48.854;8.830;2023-02-26T03:18:10;3.57;;;2.57;;
2029;SDS011;1020;48.854;8.830;2023-02-26T03:20:50;2.60;;;2.13;;
2029;SDS011;1020;48.854;8.830;2023-02-26T03:23:23;3.83;;;2.70;;
2029;SDS011;1020;48.854;8.830;2023-02-26T03:25:59;2.77;;;2.10;;
2029;SDS011;1020;48.854;8.830;2023-02-26T03:28:32;2.13;;;1.90;;
2029;SDS011;1020;48.854;8.830;2023-02-26T03:31:06;2.30;;;2.07;;
2029;SDS011;1020;48.854;8.830;2023-02-26T03:33:45;3.70;;;2.47;;
2029;SDS011;1020;48.854;8.830;2023-02-26T03:36:19;2.13;;;1.80;;
2029;SDS011;1020;48.854;8.830;2023-02-26T03:38:52;2.60;;;2.17;;
2029;SDS011;1020;48.854;8.830;2023-02-26T03:41:22;2.73;;;2.50;;
2029;SDS011;1020;48.854;8.830;2023-02-26T03:43:55;2.50;;;2.30;;
2029;SDS011;1020;48.854;8.830;2023-02-26T03:46:28;2.60;;;2.40;;
2029;SDS011;1020;48.854;8.830;2023-02-26T03:49:02;5.20;;;2.80;;
2029;SDS011;1020;48.854;8.830;2023-02-26T03:51:32;2.37;;;2.00;;
2029;SDS011;1020;48.854;8.830;2023-02-26T03:54:02;2.00;;;1.90;;
2029;SDS011;1020;48.854;8.830;2023-02-26T03:56:34;2.43;;;2.23;;
2029;SDS011;1020;48.854;8.830;2023-02-26T03:59:04;2.47;;;1.90;;
2029;SDS011;1020;48.854;8.830;2023-02-26T04:01:32;1.90;;;1.70;;
2029;SDS011;1020;48.854;8.830;2023-02-26T04:04:03;1.70;;;1.60;;
2029;SDS011;1020;48.854;8.830;2023-02-26T04:06:33;4.10;;;2.17;;
2029;SDS011;1020;48.854;8.830;2023-02-26T04:09:00;3.73;;;1.90;;
2029;SDS011;1020;48.854;8.830;2023-02-26T04:11:28;2.23;;;1.90;;
2029;SDS011;1020;48.854;8.830;2023-02-26T04:13:55;4.33;;;2.20;;
2029;SDS011;1020;48.854;8.830;2023-02-26T04:16:22;1.80;;;1.70;;
2029;SDS011;1020;48.854;8.830;2023-02-26T04:18:49;2.70;;;1.87;;
2029;SDS011;1020;48.854;8.830;2023-02-26T04:21:18;4.20;;;1.87;;
2029;SDS011;1020;48.854;8.830;2023-02-26T04:23:47;2.00;;;1.90;;
2029;SDS011;1020;48.854;8.830;2023-02-26T04:26:14;3.30;;;2.23;;
2029;SDS011;1020;48.854;8.830;2023-02-26T04:28:41;5.07;;;2.90;;
2029;SDS011;1020;48.854;8.830;2023-02-26T04:31:07;2.70;;;2.50;;
2029;SDS011;1020;48.854;8.830;2023-02-26T04:33:35;2.20;;;2.00;;
2029;SDS011;1020;48.854;8.830;2023-02-26T04:36:02;2.50;;;2.30;;
2029;SDS011;1020;48.854;8.830;2023-02-26T04:38:31;3.90;;;2.33;;
2029;SDS011;1020;48.854;8.830;2023-02-26T04:40:58;3.20;;;2.13;;
2029;SDS011;1020;48.854;8.830;2023-02-26T04:43:25;2.47;;;2.27;;
2029;SDS011;1020;48.854;8.830;2023-02-26T04:45:52;2.77;;;2.20;;
2029;SDS011;1020;48.854;8.830;2023-02-26T04:48:19;2.97;;;2.60;;
2029;SDS011;1020;48.854;8.830;2023-02-26T04:50:46;2.27;;;2.10;;
2029;SDS011;1020;48.854;8.830;2023-02-26T04:53:12;2.50;;;2.27;;
2029;SDS011;1020;48.854;8.830;2023-02-26T04:55:41;3.17;;;2.50;;
2029;SDS011;1020;48.854;8.830;2023-02-26T04:58:07;4.30;;;2.53;;
2029;SDS011;1020;48.854;8.830;2023-02-26T05:00:34;2.77;;;2.57;;
2029;SDS011;1020;48.854;8.830;2023-02-26T05:03:01;2.67;;;2.07;;
2029;SDS011;1020;48.854;8.830;2023-02-26T05:05:28;2.90;;;2.30;;
2029;SDS011;1020;48.854;8.830;2023-02-26T05:07:54;2.43;;;2.23;;
2029;SDS011;1020;48.854;8.830;2023-02-26T05:10:21;5.57;;;2.80;;
2029;SDS011;1020;48.854;8.830;2023-02-26T05:12:49;3.70;;;3.40;;
2029;SDS011;1020;48.854;8.830;2023-02-26T05:15:16;2.57;;;2.37;;
2029;SDS011;1020;48.854;8.830;2023-02-26T05:17:43;3.07;;;2.57;;
2029;SDS011;1020;48.854;8.830;2023-02-26T05:20:10;6.23;;;3.10;;
2029;SDS011;1020;48.854;8.830;2023-02-26T05:22:39;3.07;;;2.27;;
2029;SDS011;1020;48.854;8.830;2023-02-26T05:25:07;2.90;;;2.10;;
2029;SDS011;1020;48.854;8.830;2023-02-26T05:27:36;2.63;;;2.30;;
2029;SDS011;1020;48.854;8.830;2023-02-26T05:30:06;3.90;;;2.73;;
2029;SDS011;1020;48.854;8.830;2023-02-26T05:32:33;2.77;;;2.30;;
2029;SDS011;1020;48.854;8.830;2023-02-26T05:35:00;3.33;;;2.50;;
2029;SDS011;1020;48.854;8.830;2023-02-26T05:37:27;3.67;;;2.60;;
2029;SDS011;1020;48.854;8.830;2023-02-26T05:39:54;2.90;;;2.60;;
2029;SDS011;1020;48.854;8.830;2023-02-26T05:42:20;4.37;;;2.10;;
2029;SDS011;1020;48.854;8.830;2023-02-26T05:44:47;3.00;;;2.70;;
2029;SDS011;1020;48.854;8.830;2023-02-26T05:47:15;3.73;;;3.40;;
2029;SDS011;1020;48.854;8.830;2023-02-26T05:49:42;3.30;;;2.10;;
2029;SDS011;1020;48.854;8.830;2023-02-26T05:52:09;4.30;;;2.90;;
2029;SDS011;1020;48.854;8.830;2023-02-26T05:54:35;2.67;;;2.47;;
2029;SDS011;1020;48.854;8.830;2023-02-26T05:57:02;3.10;;;2.30;;
2029;SDS011;1020;48.854;8.830;2023-02-26T05:59:29;4.73;;;2.87;;
2029;SDS011;1020;48.854;8.830;2023-02-26T06:01:55;2.33;;;2.13;;
2029;SDS011;1020;48.854;8.830;2023-02-26T06:04:23;3.07;;;2.47;;
2029;SDS011;1020;48.854;8.830;2023-02-26T06:06:50;3.97;;;1.97;;
2029;SDS011;1020;48.854;8.830;2023-02-26T06:09:17;3.17;;;2.87;;
2029;SDS011;1020;48.854;8.830;2023-02-26T06:11:44;5.50;;;2.30;;
2029;SDS011;1020;48.854;8.830;2023-02-26T06:14:10;2.97;;;2.77;;
2029;SDS011;1020;48.854;8.830;2023-02-26T06:16:37;3.70;;;3.40;;
2029;SDS011;1020;48.854;8.830;2023-02-26T06:19:04;2.57;;;2.37;;
2029;SDS011;1020;48.854;8.830;2023-02-26T06:21:32;2.63;;;2.40;;
2029;SDS011;1020;48.854;8.830;2023-02-26T06:23:59;3.40;;;3.10;;
2029;SDS011;1020;48.854;8.830;2023-02-26T06:26:25;6.23;;;2.73;;
2029;SDS011;1020;48.854;8.830;2023-02-26T06:28:52;2.60;;;2.40;;
2029;SDS011;1020;48.854;8.830;2023-02-26T06:31:19;2.37;;;2.17;;
2029;SDS011;1020;48.854;8.830;2023-02-26T06:33:45;2.70;;;2.40;;
2029;SDS011;1020;48.854;8.830;2023-02-26T06:36:12;3.60;;;2.50;;
2029;SDS011;1020;48.854;8.830;2023-02-26T06:38:40;2.40;;;2.20;;
2029;SDS011;1020;48.854;8.830;2023-02-26T06:41:09;3.23;;;2.90;;
2029;SDS011;1020;48.854;8.830;2023-02-26T06:43:36;2.53;;;2.33;;
2029;SDS011;1020;48.854;8.830;2023-02-26T06:46:03;2.90;;;2.23;;
2029;SDS011;1020;48.854;8.830;2023-02-26T06:48:30;3.20;;;2.30;;
2029;SDS011;1020;48.854;8.830;2023-02-26T06:50:57;2.57;;;2.33;;
2029;SDS011;1020;48.854;8.830;2023-02-26T06:53:24;2.67;;;2.47;;
2029;SDS011;1020;48.854;8.830;2023-02-26T06:55:52;3.90;;;2.60;;
2029;SDS011;1020;48.854;8.830;2023-02-26T06:58:19;3.90;;;2.33;;
2029;SDS011;1020;48.854;8.830;2023-02-26T07:00:46;3.53;;;2.60;;
2029;SDS011;1020;48.854;8.830;2023-02-26T07:03:13;3.43;;;3.00;;
2029;SDS011;1020;48.854;8.830;2023-02-26T07:05:41;4.10;;;2.90;;
2029;SDS011;1020;48.854;8.830;2023-02-26T07:08:09;5.07;;;2.80;;
2029;SDS011;1020;48.854;8.830;2023-02-26T07:10:37;3.50;;;2.80;;
2029;SDS011;1020;48.854;8.830;2023-02-26T07:13:06;3.03;;;2.73;;
2029;SDS011;1020;48.854;8.830;2023-02-26T07:15:34;4.33;;;2.33;;
2029;SDS011;1020;48.854;8.830;2023-02-26T07:18:00;3.20;;;2.50;;
2029;SDS011;1020;48.854;8.830;2023-02-26T07:20:27;5.27;;;2.20;;
2029;SDS011;1020;48.854;8.830;2023-02-26T07:22:54;2.83;;;2.30;;
2029;SDS011;1020;48.854;8.830;2023-02-26T07:25:21;3.00;;;2.07;;
2029;SDS011;1020;48.854;8.830;2023-02-26T07:27:48;2.63;;;2.23;;
2029;SDS011;1020;48.854;8.830;2023-02-26T07:30:16;3.13;;;2.23;;
2029;SDS011;1020;48.854;8.830;2023-02-26T07:32:43;4.73;;;2.37;;
2029;SDS011;1020;48.854;8.830;2023-02-26T07:35:10;3.40;;;2.20;;
2029;SDS011;1020;48.854;8.830;2023-02-26T07:37:37;2.13;;;1.93;;
2029;SDS011;1020;48.854;8.830;2023-02-26T07:40:04;3.10;;;1.90;;
2029;SDS011;1020;48.854;8.830;2023-02-26T07:42:32;4.00;;;2.03;;
2029;SDS011;1020;48.854;8.830;2023-02-26T07:44:58;3.27;;;2.10;;
2029;SDS011;1020;48.854;8.830;2023-02-26T07:47:27;3.50;;;2.23;;
2029;SDS011;1020;48.854;8.830;2023-02-26T07:49:54;2.80;;;2.10;;
2029;SDS011;1020;48.854;8.830;2023-02-26T07:52:21;4.43;;;2.20;;
2029;SDS011;1020;48.854;8.830;2023-02-26T07:54:48;5.07;;;2.50;;
2029;SDS011;1020;48.854;8.830;2023-02-26T07:57:15;3.57;;;2.20;;
2029;SDS011;1020;48.854;8.830;2023-02-26T07:59:42;2.50;;;2.30;;
2029;SDS011;1020;48.854;8.830;2023-02-26T08:02:09;4.27;;;2.23;;
2029;SDS011;1020;48.854;8.830;2023-02-26T08:04:37;2.80;;;2.10;;
2029;SDS011;1020;48.854;8.830;2023-02-26T08:07:04;3.20;;;2.60;;
2029;SDS011;1020;48.854;8.830;2023-02-26T08:09:31;2.27;;;2.00;;
2029;SDS011;1020;48.854;8.830;2023-02-26T08:11:58;3.30;;;2.37;;
2029;SDS011;1020;48.854;8.830;2023-02-26T08:14:24;2.17;;;1.73;;
2029;SDS011;1020;48.854;8.830;2023-02-26T08:16:51;6.60;;;2.63;;
2029;SDS011;1020;48.854;8.830;2023-02-26T08:19:18;7.27;;;2.03;;
2029;SDS011;1020;48.854;8.830;2023-02-26T08:21:46;1.80;;;1.70;;
2029;SDS011;1020;48.854;8.830;2023-02-26T08:24:13;2.17;;;2.03;;
2029;SDS011;1020;48.854;8.830;2023-02-26T08:26:40;2.07;;;1.80;;
2029;SDS011;1020;48.854;8.830;2023-02-26T08:29:06;3.90;;;1.90;;
2029;SDS011;1020;48.854;8.830;2023-02-26T08:31:33;3.13;;;1.90;;
2029;SDS011;1020;48.854;8.830;2023-02-26T08:34:00;2.80;;;2.40;;
2029;SDS011;1020;48.854;8.830;2023-02-26T08:36:28;4.07;;;2.17;;
2029;SDS011;1020;48.854;8.830;2023-02-26T08:38:56;2.70;;;1.63;;
2029;SDS011;1020;48.854;8.830;2023-02-26T08:41:23;2.13;;;1.80;;
2029;SDS011;1020;48.854;8.830;2023-02-26T08:43:51;3.50;;;1.70;;
2029;SDS011;1020;48.854;8.830;2023-02-26T08:46:18;1.87;;;1.73;;
2029;SDS011;1020;48.854;8.830;2023-02-26T08:48:45;3.03;;;1.70;;
2029;SDS011;1020;48.854;8.830;2023-02-26T08:51:11;2.60;;;1.60;;
2029;SDS011;1020;48.854;8.830;2023-02-26T08:53:39;2.97;;;1.63;;
2029;SDS011;1020;48.854;8.830;2023-02-26T08:56:10;2.20;;;1.60;;
2029;SDS011;1020;48.854;8.830;2023-02-26T08:58:37;3.60;;;1.50;;
2029;SDS011;1020;48.854;8.830;2023-02-26T09:01:04;1.70;;;1.60;;
2029;SDS011;1020;48.854;8.830;2023-02-26T09:03:31;2.90;;;1.83;;
2029;SDS011;1020;48.854;8.830;2023-02-26T09:05:58;2.10;;;1.73;;
2029;SDS011;1020;48.854;8.830;2023-02-26T09:08:24;2.80;;;1.73;;
2029;SDS011;1020;48.854;8.830;2023-02-26T09:10:51;1.50;;;1.33;;
2029;SDS011;1020;48.854;8.830;2023-02-26T09:13:19;2.40;;;1.30;;
2029;SDS011;1020;48.854;8.830;2023-02-26T09:15:47;2.43;;;2.23;;
2029;SDS011;1020;48.854;8.830;2023-02-26T09:18:14;3.07;;;1.57;;
2029;SDS011;1020;48.854;8.830;2023-02-26T09:20:41;2.07;;;1.93;;
2029;SDS011;1020;48.854;8.830;2023-02-26T09:23:08;2.10;;;1.40;;
2029;SDS011;1020;48.854;8.830;2023-02-26T09:25:34;1.63;;;1.53;;
2029;SDS011;1020;48.854;8.830;2023-02-26T09:28:01;2.23;;;1.40;;
2029;SDS011;1020;48.854;8.830;2023-02-26T09:30:30;2.63;;;1.70;;
2029;SDS011;1020;48.854;8.830;2023-02-26T09:32:57;1.70;;;1.60;;
2029;SDS011;1020;48.854;8.830;2023-02-26T09:35:24;2.80;;;2.07;;
2029;SDS011;1020;48.854;8.830;2023-02-26T09:37:51;3.13;;;1.90;;
2029;SDS011;1020;48.854;8.830;2023-02-26T09:40:20;2.50;;;1.90;;
2029;SDS011;1020;48.854;8.830;2023-02-26T09:43:01;2.20;;;1.73;;
2029;SDS011;1020;48.854;8.830;2023-02-26T09:45:41;1.83;;;1.73;;
2029;SDS011;1020;48.854;8.830;2023-02-26T09:48:11;2.00;;;1.80;;
2029;SDS011;1020;48.854;8.830;2023-02-26T09:50:42;2.47;;;1.97;;
2029;SDS011;1020;48.854;8.830;2023-02-26T09:53:13;2.20;;;2.10;;
2029;SDS011;1020;48.854;8.830;2023-02-26T09:55:43;3.23;;;2.07;;
2029;SDS011;1020;48.854;8.830;2023-02-26T09:58:13;3.43;;;2.23;;
2029;SDS011;1020;48.854;8.830;2023-02-26T10:00:46;1.90;;;1.80;;
2029;SDS011;1020;48.854;8.830;2023-02-26T10:03:20;5.03;;;1.93;;
2029;SDS011;1020;48.854;8.830;2023-02-26T10:05:59;2.40;;;2.07;;
2029;SDS011;1020;48.854;8.830;2023-02-26T10:08:44;1.93;;;1.53;;
2029;SDS011;1020;48.854;8.830;2023-02-26T10:11:18;2.87;;;2.50;;
2029;SDS011;1020;48.854;8.830;2023-02-26T10:13:51;2.53;;;2.30;;
2029;SDS011;1020;48.854;8.830;2023-02-26T10:16:23;2.37;;;2.00;;
2029;SDS011;1020;48.854;8.830;2023-02-26T10:18:54;3.80;;;2.10;;
2029;SDS011;1020;48.854;8.830;2023-02-26T10:21:25;2.10;;;1.90;;
2029;SDS011;1020;48.854;8.830;2023-02-26T10:23:58;2.17;;;1.97;;
2029;SDS011;1020;48.854;8.830;2023-02-26T10:26:31;2.50;;;1.93;;
2029;SDS011;1020;48.854;8.830;2023-02-26T10:29:05;6.47;;;1.97;;
2029;SDS011;1020;48.854;8.830;2023-02-26T10:31:47;2.23;;;2.03;;
2029;SDS011;1020;48.854;8.830;2023-02-26T10:34:24;2.43;;;2.23;;
2029;SDS011;1020;48.854;8.830;2023-02-26T10:36:57;2.30;;;1.83;;
2029;SDS011;1020;48.854;8.830;2023-02-26T10:39:30;2.00;;;1.90;;
2029;SDS011;1020;48.854;8.830;2023-02-26T10:42:00;3.13;;;2.00;;
2029;SDS011;1020;48.854;8.830;2023-02-26T10:44:31;2.47;;;2.37;;
2029;SDS011;1020;48.854;8.830;2023-02-26T10:47:06;2.40;;;2.20;;
2029;SDS011;1020;48.854;8.830;2023-02-26T10:49:43;1.60;;;1.50;;
2029;SDS011;1020;48.854;8.830;2023-02-26T10:52:17;1.73;;;1.63;;
2029;SDS011;1020;48.854;8.830;2023-02-26T10:54:48;2.90;;;2.13;;
2029;SDS011;1020;48.854;8.830;2023-02-26T10:57:26;1.70;;;1.60;;
2029;SDS011;1020;48.854;8.830;2023-02-26T10:59:57;5.90;;;1.63;;
2029;SDS011;1020;48.854;8.830;2023-02-26T11:02:31;2.00;;;1.70;;
2029;SDS011;1020;48.854;8.830;2023-02-26T11:05:01;1.50;;;1.40;;
2029;SDS011;1020;48.854;8.830;2023-02-26T11:07:30;1.50;;;1.40;;
2029;SDS011;1020;48.854;8.830;2023-02-26T11:09:58;2.57;;;1.80;;
2029;SDS011;1020;48.854;8.830;2023-02-26T11:12:25;1.70;;;1.60;;
2029;SDS011;1020;48.854;8.830;2023-02-26T11:14:52;1.17;;;1.17;;
2029;SDS011;1020;48.854;8.830;2023-02-26T11:17:19;2.83;;;2.57;;
2029;SDS011;1020;48.854;8.830;2023-02-26T11:19:54;1.57;;;1.47;;
2029;SDS011;1020;48.854;8.830;2023-02-26T11:22:23;3.90;;;1.77;;
2029;SDS011;1020;48.854;8.830;2023-02-26T11:24:51;1.70;;;1.60;;
2029;SDS011;1020;48.854;8.830;2023-02-26T11:27:19;1.70;;;1.60;;
2029;SDS011;1020;48.854;8.830;2023-02-26T11:29:52;1.60;;;1.50;;
2029;SDS011;1020;48.854;8.830;2023-02-26T11:32:21;1.70;;;1.60;;
2029;SDS011;1020;48.854;8.830;2023-02-26T11:34:55;1.60;;;1.50;;
2029;SDS011;1020;48.854;8.830;2023-02-26T11:37:22;1.73;;;1.50;;
2029;SDS011;1020;48.854;8.830;2023-02-26T11:39:54;1.80;;;1.70;;
2029;SDS011;1020;48.854;8.830;2023-02-26T11:42:22;1.77;;;1.67;;
2029;SDS011;1020;48.854;8.830;2023-02-26T11:44:50;2.10;;;1.37;;
2029;SDS011;1020;48.854;8.830;2023-02-26T11:47:18;1.30;;;1.30;;
2029;SDS011;1020;48.854;8.830;2023-02-26T11:49:49;1.47;;;1.37;;
2029;SDS011;1020;48.854;8.830;2023-02-26T11:52:28;1.70;;;1.33;;
2029;SDS011;1020;48.854;8.830;2023-02-26T11:54:59;1.33;;;1.23;;
2029;SDS011;1020;48.854;8.830;2023-02-26T11:57:28;1.33;;;1.23;;
2029;SDS011;1020;48.854;8.830;2023-02-26T11:59:56;1.40;;;1.30;;
2029;SDS011;1020;48.854;8.830;2023-02-26T12:02:25;1.33;;;1.23;;
2029;SDS011;1020;48.854;8.830;2023-02-26T12:05:00;1.30;;;1.20;;
2029;SDS011;1020;48.854;8.830;2023-02-26T12:07:32;1.50;;;1.40;;
2029;SDS011;1020;48.854;8.830;2023-02-26T12:09:58;1.50;;;1.40;;
2029;SDS011;1020;48.854;8.830;2023-02-26T12:12:29;1.60;;;1.50;;
2029;SDS011;1020;48.854;8.830;2023-02-26T12:18:07;2.63;;;1.57;;
2029;SDS011;1020;48.854;8.830;2023-02-26T12:20:46;1.40;;;1.30;;
2029;SDS011;1020;48.854;8.830;2023-02-26T12:23:28;1.67;;;1.50;;
2029;SDS011;1020;48.854;8.830;2023-02-26T12:26:15;1.50;;;1.40;;
2029;SDS011;1020;48.854;8.830;2023-02-26T12:28:55;1.43;;;1.33;;
2029;SDS011;1020;48.854;8.830;2023-02-26T12:31:48;1.63;;;1.10;;
2029;SDS011;1020;48.854;8.830;2023-02-26T12:34:49;1.50;;;1.40;;
2029;SDS011;1020;48.854;8.830;2023-02-26T12:37:32;1.43;;;1.33;;
2029;SDS011;1020;48.854;8.830;2023-02-26T12:40:14;1.50;;;1.40;;
2029;SDS011;1020;48.854;8.830;2023-02-26T12:42:56;3.80;;;1.57;;
2029;SDS011;1020;48.854;8.830;2023-02-26T12:45:33;1.30;;;1.30;;
2029;SDS011;1020;48.854;8.830;2023-02-26T12:48:21;1.63;;;1.53;;
2029;SDS011;1020;48.854;8.830;2023-02-26T12:51:01;1.43;;;1.33;;
2029;SDS011;1020;48.854;8.830;2023-02-26T12:53:42;1.23;;;1.20;;
2029;SDS011;1020;48.854;8.830;2023-02-26T12:56:22;1.43;;;1.33;;
2029;SDS011;1020;48.854;8.830;2023-02-26T12:59:08;1.27;;;1.27;;
2029;SDS011;1020;48.854;8.830;2023-02-26T13:01:45;1.60;;;1.50;;
2029;SDS011;1020;48.854;8.830;2023-02-26T13:04:38;2.43;;;1.33;;
2029;SDS011;1020;48.854;8.830;2023-02-26T13:07:21;0.93;;;0.93;;
2029;SDS011;1020;48.854;8.830;2023-02-26T13:10:02;2.87;;;2.43;;
2029;SDS011;1020;48.854;8.830;2023-02-26T13:12:40;3.73;;;3.43;;
2029;SDS011;1020;48.854;8.830;2023-02-26T13:15:20;3.07;;;2.87;;
2029;SDS011;1020;48.854;8.830;2023-02-26T13:18:19;2.10;;;1.90;;
2029;SDS011;1020;48.854;8.830;2023-02-26T13:20:56;1.83;;;1.73;;
2029;SDS011;1020;48.854;8.830;2023-02-26T13:23:29;1.87;;;1.70;;
2029;SDS011;1020;48.854;8.830;2023-02-26T13:26:01;1.50;;;1.40;;
2029;SDS011;1020;48.854;8.830;2023-02-26T13:28:35;1.63;;;1.50;;
2029;SDS011;1020;48.854;8.830;2023-02-26T13:31:06;1.40;;;1.20;;
2029;SDS011;1020;48.854;8.830;2023-02-26T13:33:37;2.73;;;2.53;;
2029;SDS011;1020;48.854;8.830;2023-02-26T13:36:05;2.90;;;2.60;;
2029;SDS011;1020;48.854;8.830;2023-02-26T13:38:34;4.77;;;4.37;;
2029;SDS011;1020;48.854;8.830;2023-02-26T13:41:09;3.33;;;3.03;;
2029;SDS011;1020;48.854;8.830;2023-02-26T13:46:41;3.03;;;2.83;;
2029;SDS011;1020;48.854;8.830;2023-02-26T13:49:17;2.13;;;1.93;;
2029;SDS011;1020;48.854;8.830;2023-02-26T13:51:48;1.80;;;1.70;;
2029;SDS011;1020;48.854;8.830;2023-02-26T13:54:27;1.67;;;1.57;;
2029;SDS011;1020;48.854;8.830;2023-02-26T13:57:22;1.60;;;1.50;;
2029;SDS011;1020;48.854;8.830;2023-02-26T13:59:53;1.63;;;1.53;;
2029;SDS011;1020;48.854;8.830;2023-02-26T14:05:31;1.67;;;1.50;;
2029;SDS011;1020;48.854;8.830;2023-02-26T14:08:24;1.63;;;1.53;;
2029;SDS011;1020;48.854;8.830;2023-02-26T14:10:54;1.40;;;1.20;;
2029;SDS011;1020;48.854;8.830;2023-02-26T14:13:23;0.93;;;0.93;;
2029;SDS011;1020;48.854;8.830;2023-02-26T14:16:00;1.07;;;0.90;;
2029;SDS011;1020;48.854;8.830;2023-02-26T14:18:34;1.07;;;1.07;;
2029;SDS011;1020;48.854;8.830;2023-02-26T14:24:05;1.00;;;1.00;;
2029;SDS011;1020;48.854;8.830;2023-02-26T14:26:43;1.13;;;1.13;;
2029;SDS011;1020;48.854;8.830;2023-02-26T14:29:14;1.30;;;1.00;;
2029;SDS011;1020;48.854;8.830;2023-02-26T14:31:52;1.40;;;0.97;;
2029;SDS011;1020;48.854;8.830;2023-02-26T14:34:27;1.27;;;1.17;;
2029;SDS011;1020;48.854;8.830;2023-02-26T14:36:57;0.70;;;0.70;;
2029;SDS011;1020;48.854;8.830;2023-02-26T14:39:27;1.03;;;1.03;;
2029;SDS011;1020;48.854;8.830;2023-02-26T14:42:00;1.20;;;1.10;;
2029;SDS011;1020;48.854;8.830;2023-02-26T14:44:30;1.47;;;1.20;;
2029;SDS011;1020;48.854;8.830;2023-02-26T14:47:02;1.10;;;1.10;;
2029;SDS011;1020;48.854;8.830;2023-02-26T14:49:31;0.80;;;0.80;;
2029;SDS011;1020;48.854;8.830;2023-02-26T14:52:23;0.97;;;0.87;;
2029;SDS011;1020;48.854;8.830;2023-02-26T14:58:18;1.10;;;1.07;;
2029;SDS011;1020;48.854;8.830;2023-02-26T15:01:06;0.90;;;0.90;;
2029;SDS011;1020;48.854;8.830;2023-02-26T15:03:47;1.07;;;1.07;;
2029;SDS011;1020;48.854;8.830;2023-02-26T15:06:45;1.50;;;1.40;;
2029;SDS011;1020;48.854;8.830;2023-02-26T15:09:21;0.90;;;0.90;;
2029;SDS011;1020;48.854;8.830;2023-02-26T15:11:56;2.53;;;1.00;;
2029;SDS011;1020;48.854;8.830;2023-02-26T15:14:41;1.20;;;0.90;;
2029;SDS011;1020;48.854;8.830;2023-02-26T15:20:20;1.27;;;1.17;;
2029;SDS011;1020;48.854;8.830;2023-02-26T15:22:57;1.40;;;1.40;;
2029;SDS011;1020;48.854;8.830;2023-02-26T15:25:35;2.90;;;1.90;;
2029;SDS011;1020;48.854;8.830;2023-02-26T15:28:05;1.53;;;1.30;;
2029;SDS011;1020;48.854;8.830;2023-02-26T15:30:37;1.63;;;1.53;;
2029;SDS011;1020;48.854;8.830;2023-02-26T15:33:04;1.40;;;1.30;;
2029;SDS011;1020;48.854;8.830;2023-02-26T15:35:39;1.23;;;1.20;;
2029;SDS011;1020;48.854;8.830;2023-02-26T15:38:09;2.10;;;1.73;;
2029;SDS011;1020;48.854;8.830;2023-02-26T15:40:36;1.57;;;1.33;;
2029;SDS011;1020;48.854;8.830;2023-02-26T15:43:04;1.30;;;1.20;;
2029;SDS011;1020;48.854;8.830;2023-02-26T15:45:32;1.43;;;1.33;;
2029;SDS011;1020;48.854;8.830;2023-02-26T15:48:03;1.50;;;1.40;;
2029;SDS011;1020;48.854;8.830;2023-02-26T15:50:36;1.97;;;1.40;;
2029;SDS011;1020;48.854;8.830;2023-02-26T15:53:06;1.40;;;1.27;;
2029;SDS011;1020;48.854;8.830;2023-02-26T15:55:43;1.17;;;1.17;;
2029;SDS011;1020;48.854;8.830;2023-02-26T15:58:13;1.03;;;1.03;;
2029;SDS011;1020;48.854;8.830;2023-02-26T16:00:50;1.17;;;1.10;;
2029;SDS011;1020;48.854;8.830;2023-02-26T16:03:23;1.63;;;1.53;;
2029;SDS011;1020;48.854;8.830;2023-02-26T16:05:54;1.67;;;1.07;;
2029;SDS011;1020;48.854;8.830;2023-02-26T16:08:21;1.27;;;1.17;;